Time;durP1;ratioP1;P1;durP2;ratioP2;P2;SDS_P1;SDS_P2;PMS_P1;PMS_P2;Temp;Humidity;BMP_temperature;BMP_pressure;BME280_temperature;BME280_humidity;BME280_pressure;Samples;Min_cycle;Max_cycle;Signal;HPM_P1;HPM_P2
2022/11/27 00:00:39;;;;;;;24.90;12.20;;;2.10;99.90;;;;;;4987298;28;20026;-77
2022/11/27 00:03:05;;;;;;;24.88;11.50;;;2.00;99.90;;;;;;4980558;28;20491;-78
2022/11/27 00:05:30;;;;;;;24.98;13.40;;;2.00;99.90;;;;;;4973516;28;20081;-78
2022/11/27 00:07:56;;;;;;;28.35;11.90;;;2.00;99.90;;;;;;4976288;28;20064;-78
2022/11/27 00:10:21;;;;;;;21.25;10.40;;;2.00;99.90;;;;;;4969071;28;20030;-79
2022/11/27 00:12:47;;;;;;;19.40;11.15;;;2.00;99.90;;;;;;4970023;28;20387;-79
2022/11/27 00:15:13;;;;;;;19.58;10.70;;;2.00;99.90;;;;;;4970068;28;20042;-79
2022/11/27 00:17:38;;;;;;;19.63;10.68;;;2.00;99.90;;;;;;4971145;28;20023;-79
2022/11/27 00:20:05;;;;;;;17.88;9.80;;;1.90;99.90;;;;;;4973166;28;20118;-79
2022/11/27 00:22:30;;;;;;;20.08;10.50;;;1.90;99.90;;;;;;4966681;28;20031;-79
2022/11/27 00:24:56;;;;;;;23.15;10.45;;;2.00;99.90;;;;;;4971348;28;20041;-78
2022/11/27 00:27:22;;;;;;;16.90;8.95;;;1.90;99.90;;;;;;4970997;28;20035;-78
2022/11/27 00:29:47;;;;;;;15.43;9.40;;;1.90;99.90;;;;;;4971952;28;20029;-78
2022/11/27 00:32:13;;;;;;;22.08;10.10;;;1.80;99.90;;;;;;4970928;28;20506;-79
2022/11/27 00:34:38;;;;;;;19.05;10.05;;;1.90;99.90;;;;;;4971728;28;20428;-78
2022/11/27 00:37:06;;;;;;;15.27;10.43;;;1.80;99.90;;;;;;4976842;28;20027;-78
2022/11/27 00:39:31;;;;;;;20.83;10.23;;;1.90;99.90;;;;;;4971755;28;20026;-79
2022/11/27 00:41:57;;;;;;;15.15;9.35;;;1.80;99.90;;;;;;4969750;28;20033;-79
2022/11/27 00:44:23;;;;;;;19.38;10.32;;;1.80;99.90;;;;;;4972092;28;20027;-79
2022/11/27 00:46:48;;;;;;;15.60;9.60;;;1.80;99.90;;;;;;4972800;28;20031;-79
2022/11/27 00:49:14;;;;;;;19.75;9.70;;;1.80;99.90;;;;;;4973451;28;20037;-79
2022/11/27 00:51:41;;;;;;;16.95;9.48;;;1.80;99.90;;;;;;4970117;28;20046;-79
2022/11/27 00:54:07;;;;;;;37.00;11.20;;;1.80;99.90;;;;;;4971669;28;20503;-79
2022/11/27 00:56:35;;;;;;;20.38;10.73;;;1.70;99.90;;;;;;4971069;28;20069;-79
2022/11/27 00:59:02;;;;;;;25.17;10.60;;;1.70;99.90;;;;;;4972540;28;20038;-79
2022/11/27 01:01:33;;;;;;;22.63;12.07;;;1.80;99.90;;;;;;4971498;28;20027;-78
2022/11/27 01:04:01;;;;;;;20.70;10.13;;;1.80;99.90;;;;;;4971870;28;20034;-79
2022/11/27 01:06:28;;;;;;;18.67;10.55;;;1.70;99.90;;;;;;4975249;28;20015;-78
2022/11/27 01:08:54;;;;;;;17.75;10.48;;;1.70;99.90;;;;;;4965855;28;20051;-79
2022/11/27 01:11:26;;;;;;;20.40;10.93;;;1.70;99.90;;;;;;4973549;28;20529;-78
2022/11/27 01:13:54;;;;;;;22.60;10.88;;;1.70;99.90;;;;;;4967465;28;20102;-79
2022/11/27 01:16:22;;;;;;;27.10;12.55;;;1.70;99.90;;;;;;4968918;28;20570;-79
2022/11/27 01:18:49;;;;;;;29.02;13.15;;;1.70;99.90;;;;;;4967123;28;20314;-79
2022/11/27 01:21:18;;;;;;;25.92;14.27;;;1.70;99.90;;;;;;4965960;28;20321;-79
2022/11/27 01:23:44;;;;;;;20.92;11.00;;;1.70;99.90;;;;;;4971719;28;20525;-79
2022/11/27 01:26:11;;;;;;;29.92;13.80;;;1.70;99.90;;;;;;4977789;28;20268;-79
2022/11/27 01:28:38;;;;;;;30.95;14.43;;;1.70;99.90;;;;;;4967151;28;20117;-79
2022/11/27 01:31:16;;;;;;;22.17;12.80;;;1.70;99.90;;;;;;4972149;28;20480;-79
2022/11/27 01:33:43;;;;;;;23.85;11.70;;;1.60;99.90;;;;;;4970943;28;20038;-79
2022/11/27 01:36:10;;;;;;;23.42;10.27;;;1.60;99.90;;;;;;4970962;28;20053;-79
2022/11/27 01:38:36;;;;;;;25.02;11.77;;;1.60;99.90;;;;;;4973672;28;20033;-79
2022/11/27 01:41:12;;;;;;;26.05;10.48;;;1.60;99.90;;;;;;4970437;28;20035;-78
2022/11/27 01:43:48;;;;;;;18.90;9.80;;;1.50;99.90;;;;;;4970654;28;20054;-78
2022/11/27 01:46:50;;;;;;;16.42;8.57;;;1.40;99.90;;;;;;4976739;28;20054;-79
2022/11/27 01:49:32;;;;;;;17.80;7.68;;;1.40;99.90;;;;;;4970829;28;20047;-78
2022/11/27 01:52:02;;;;;;;13.23;7.40;;;1.20;99.90;;;;;;4967474;28;20427;-79
2022/11/27 01:54:33;;;;;;;12.60;7.07;;;1.20;99.90;;;;;;4973714;28;20442;-79
2022/11/27 01:57:05;;;;;;;16.55;8.55;;;1.20;99.90;;;;;;4970495;28;20030;-78
2022/11/27 01:59:31;;;;;;;20.67;7.90;;;1.20;99.90;;;;;;4970917;28;20027;-79
2022/11/27 02:01:57;;;;;;;14.00;8.18;;;1.20;99.90;;;;;;4971853;28;20066;-79
2022/11/27 02:04:22;;;;;;;34.20;8.07;;;1.10;99.90;;;;;;4972022;28;20030;-79
2022/11/27 02:06:48;;;;;;;13.65;7.32;;;1.10;99.90;;;;;;4975383;28;20501;-79
2022/11/27 02:09:14;;;;;;;23.10;6.38;;;1.10;99.90;;;;;;4969694;28;20093;-79
2022/11/27 02:11:52;;;;;;;14.85;6.70;;;1.10;99.90;;;;;;4970542;28;20042;-78
2022/11/27 02:14:21;;;;;;;12.07;6.88;;;1.10;99.90;;;;;;4974079;28;20062;-79
2022/11/27 02:17:14;;;;;;;11.27;6.13;;;1.10;99.90;;;;;;4966860;28;20026;-78
2022/11/27 02:19:54;;;;;;;28.50;6.40;;;1.10;99.90;;;;;;4967657;28;20106;-78
2022/11/27 02:22:29;;;;;;;19.48;6.95;;;1.10;99.90;;;;;;4968425;28;20027;-78
2022/11/27 02:25:09;;;;;;;27.45;7.85;;;1.10;99.90;;;;;;4973816;28;20114;-78
2022/11/27 02:27:37;;;;;;;14.57;6.07;;;1.10;99.90;;;;;;4972508;28;20031;-78
2022/11/27 02:30:05;;;;;;;22.95;7.85;;;1.10;99.90;;;;;;4967990;28;20041;-78
2022/11/27 02:32:57;;;;;;;15.82;6.43;;;1.10;99.90;;;;;;4966500;28;20490;-78
2022/11/27 02:35:37;;;;;;;9.70;5.90;;;1.10;99.90;;;;;;4966314;28;20085;-78
2022/11/27 02:38:19;;;;;;;11.63;6.18;;;1.10;99.90;;;;;;4967304;28;20026;-78
2022/11/27 02:40:57;;;;;;;19.98;7.15;;;1.10;99.90;;;;;;4971821;28;20173;-76
2022/11/27 02:43:29;;;;;;;11.95;6.00;;;1.10;99.90;;;;;;4969884;28;20027;-78
2022/11/27 02:45:58;;;;;;;12.68;6.32;;;1.10;99.90;;;;;;4970017;28;20490;-78
2022/11/27 02:48:29;;;;;;;12.85;5.93;;;1.10;99.90;;;;;;4963712;28;20138;-78
2022/11/27 02:50:55;;;;;;;15.85;5.90;;;1.10;99.90;;;;;;4964065;28;20039;-78
2022/11/27 02:53:29;;;;;;;17.05;6.13;;;1.10;99.90;;;;;;4971977;28;20490;-78
2022/11/27 02:55:57;;;;;;;23.00;6.65;;;1.10;99.90;;;;;;4967880;28;20034;-78
2022/11/27 02:58:26;;;;;;;11.18;6.22;;;1.10;99.90;;;;;;4972303;28;20023;-78
2022/11/27 03:00:53;;;;;;;31.42;5.82;;;1.10;99.90;;;;;;4972151;28;20023;-78
2022/11/27 03:03:23;;;;;;;16.50;7.25;;;1.10;99.90;;;;;;4970752;28;20030;-78
2022/11/27 03:05:54;;;;;;;33.17;6.45;;;1.00;99.90;;;;;;4968586;28;21539;-78
2022/11/27 03:08:36;;;;;;;12.43;5.95;;;1.10;99.90;;;;;;4968199;28;20572;-78
2022/11/27 03:11:07;;;;;;;16.83;5.82;;;1.10;99.90;;;;;;4969900;28;20033;-78
2022/11/27 03:13:39;;;;;;;25.60;6.20;;;1.10;99.90;;;;;;4969954;28;20027;-78
2022/11/27 03:16:23;;;;;;;20.15;6.15;;;1.10;99.90;;;;;;4965128;28;20439;-78
2022/11/27 03:19:13;;;;;;;14.13;5.65;;;1.10;99.90;;;;;;4970366;28;20027;-78
2022/11/27 03:21:42;;;;;;;32.67;7.03;;;1.10;99.90;;;;;;4962948;28;20120;-78
2022/11/27 03:24:09;;;;;;;25.25;6.85;;;1.10;99.90;;;;;;4973369;28;20031;-78
2022/11/27 03:26:36;;;;;;;25.42;6.70;;;1.10;99.90;;;;;;4974241;28;20110;-78
2022/11/27 03:29:05;;;;;;;23.15;6.43;;;1.10;99.90;;;;;;4969019;28;20027;-78
2022/11/27 03:31:31;;;;;;;21.20;5.75;;;1.10;99.90;;;;;;4966004;28;20042;-78
2022/11/27 03:33:57;;;;;;;38.55;6.68;;;1.10;99.90;;;;;;4968338;28;20476;-78
2022/11/27 03:36:22;;;;;;;21.00;6.65;;;1.10;99.90;;;;;;4973850;28;20103;-78
2022/11/27 03:38:50;;;;;;;30.05;6.03;;;1.00;99.90;;;;;;4964793;28;20023;-78
2022/11/27 03:41:43;;;;;;;10.02;5.53;;;1.00;99.90;;;;;;4969347;28;20042;-77
2022/11/27 03:44:21;;;;;;;12.87;6.10;;;1.00;99.90;;;;;;4976426;28;20428;-78
2022/11/27 03:46:52;;;;;;;14.40;5.10;;;1.00;99.90;;;;;;4977157;28;20051;-78
2022/11/27 03:49:43;;;;;;;8.27;4.80;;;1.00;99.90;;;;;;4985264;28;20023;-77
2022/11/27 03:52:24;;;;;;;14.27;5.93;;;1.00;99.90;;;;;;4980203;28;20027;-77
2022/11/27 03:55:02;;;;;;;7.82;5.25;;;1.00;99.90;;;;;;4987478;28;20039;-78
2022/11/27 03:57:36;;;;;;;9.57;5.35;;;1.00;99.90;;;;;;4984135;28;20018;-77
2022/11/27 04:00:07;;;;;;;19.90;6.32;;;1.00;99.90;;;;;;4985956;28;20027;-77
2022/11/27 04:02:50;;;;;;;9.20;5.18;;;1.00;99.90;;;;;;4971520;28;20027;-77
2022/11/27 04:05:16;;;;;;;8.68;4.82;;;1.00;99.90;;;;;;4959208;28;20030;-77
2022/11/27 04:07:42;;;;;;;10.02;4.63;;;1.00;99.90;;;;;;4965897;28;20494;-77
2022/11/27 04:10:09;;;;;;;11.30;5.13;;;0.90;99.90;;;;;;4970896;28;20034;-77
2022/11/27 04:12:35;;;;;;;8.52;4.97;;;0.90;99.90;;;;;;4971782;28;20038;-77
2022/11/27 04:15:01;;;;;;;7.88;4.95;;;0.90;99.90;;;;;;4974535;28;20131;-77
2022/11/27 04:17:26;;;;;;;9.80;5.13;;;0.90;99.90;;;;;;4972573;28;20027;-77
2022/11/27 04:19:52;;;;;;;10.95;5.78;;;0.90;99.90;;;;;;4971474;28;20034;-77
2022/11/27 04:22:18;;;;;;;9.23;4.43;;;0.90;99.90;;;;;;4971566;28;20498;-77
2022/11/27 04:24:43;;;;;;;10.98;5.78;;;0.90;99.90;;;;;;4992936;28;20490;-77
2022/11/27 04:27:09;;;;;;;12.73;5.25;;;0.90;99.90;;;;;;4977227;28;20487;-77
2022/11/27 04:29:37;;;;;;;13.38;5.15;;;0.90;99.90;;;;;;4973251;28;20395;-77
2022/11/27 04:32:04;;;;;;;10.00;5.03;;;0.90;99.90;;;;;;4970795;28;20039;-75
2022/11/27 04:34:30;;;;;;;21.98;5.70;;;0.90;99.90;;;;;;4978529;28;20080;-77
2022/11/27 04:36:55;;;;;;;8.25;4.93;;;0.90;99.90;;;;;;4972021;28;20038;-76
2022/11/27 04:39:21;;;;;;;9.00;4.78;;;0.90;99.90;;;;;;4972020;28;20027;-77
2022/11/27 04:41:47;;;;;;;17.95;5.53;;;0.90;99.90;;;;;;4979087;28;20022;-76
2022/11/27 04:44:13;;;;;;;14.90;5.18;;;0.90;99.90;;;;;;4968506;28;20783;-77
2022/11/27 04:46:39;;;;;;;9.20;5.07;;;0.90;99.90;;;;;;4973084;28;20062;-77
2022/11/27 04:49:04;;;;;;;11.80;5.07;;;0.90;99.90;;;;;;4970381;28;20495;-76
2022/11/27 04:51:30;;;;;;;14.32;5.70;;;0.80;99.90;;;;;;4969436;28;20476;-77
2022/11/27 04:53:56;;;;;;;9.52;5.30;;;0.80;99.90;;;;;;4973441;28;20547;-76
2022/11/27 04:56:22;;;;;;;29.42;5.93;;;0.80;99.90;;;;;;4968288;28;20149;-77
2022/11/27 04:58:47;;;;;;;9.20;5.10;;;0.80;99.90;;;;;;4971131;28;20035;-76
2022/11/27 05:01:13;;;;;;;11.68;5.22;;;0.70;99.90;;;;;;4970228;28;20106;-76
2022/11/27 05:03:38;;;;;;;11.07;5.50;;;0.70;99.90;;;;;;4973861;28;20399;-77
2022/11/27 05:06:04;;;;;;;12.27;6.80;;;0.70;99.90;;;;;;4971022;28;20039;-77
2022/11/27 05:08:31;;;;;;;11.80;5.85;;;0.60;99.90;;;;;;4968178;28;20085;-76
2022/11/27 05:11:02;;;;;;;13.23;6.30;;;0.60;99.90;;;;;;4970748;28;20439;-76
2022/11/27 05:13:28;;;;;;;11.07;5.53;;;0.50;99.90;;;;;;4970477;28;20118;-76
2022/11/27 05:15:54;;;;;;;10.82;5.78;;;0.40;99.90;;;;;;4973728;28;20447;-76
2022/11/27 05:18:19;;;;;;;10.95;5.32;;;0.40;99.90;;;;;;4973353;28;20034;-77
2022/11/27 05:20:45;;;;;;;10.13;5.55;;;0.40;99.90;;;;;;4972723;28;20026;-76
2022/11/27 05:23:11;;;;;;;12.38;5.30;;;0.30;99.90;;;;;;4971716;28;20033;-76
2022/11/27 05:25:36;;;;;;;9.55;6.05;;;0.30;99.90;;;;;;4973579;28;20475;-76
2022/11/27 05:28:02;;;;;;;13.63;5.45;;;0.30;99.90;;;;;;4967573;28;20410;-76
2022/11/27 05:30:28;;;;;;;12.55;5.50;;;0.30;99.90;;;;;;4969192;28;20479;-76
2022/11/27 05:32:53;;;;;;;12.45;5.95;;;0.30;99.90;;;;;;4970925;28;20046;-76
2022/11/27 05:35:19;;;;;;;23.65;6.00;;;0.30;99.90;;;;;;4966591;28;20041;-77
2022/11/27 05:37:45;;;;;;;13.68;5.28;;;0.30;99.90;;;;;;4972227;28;20026;-74
2022/11/27 05:40:10;;;;;;;8.80;4.90;;;0.20;99.90;;;;;;4971488;28;20410;-75
2022/11/27 05:42:36;;;;;;;9.02;4.82;;;0.20;99.90;;;;;;4972262;28;20026;-75
2022/11/27 05:45:02;;;;;;;10.93;4.68;;;0.20;99.90;;;;;;4969920;28;20912;-74
2022/11/27 05:47:27;;;;;;;15.13;4.10;;;0.30;99.90;;;;;;4973854;28;20034;-73
2022/11/27 05:49:53;;;;;;;7.63;4.25;;;0.20;99.90;;;;;;4963514;28;20467;-74
2022/11/27 05:54:50;;;;;;;6.85;3.83;;;0.20;99.90;;;;;;4979608;28;20049;-76
2022/11/27 05:57:15;;;;;;;6.25;3.45;;;0.20;99.90;;;;;;4990507;28;20475;-76
2022/11/27 05:59:41;;;;;;;5.32;3.40;;;0.20;99.90;;;;;;4988148;28;20406;-75
2022/11/27 06:02:06;;;;;;;5.25;3.33;;;0.20;99.90;;;;;;4988603;28;20026;-76
2022/11/27 06:04:35;;;;;;;6.00;3.47;;;0.20;99.90;;;;;;4985944;28;20487;-77
2022/11/27 06:07:01;;;;;;;5.50;3.25;;;0.20;99.90;;;;;;4988700;28;20034;-75
2022/11/27 06:09:32;;;;;;;5.68;3.25;;;0.20;99.90;;;;;;4982080;28;20849;-75
2022/11/27 06:11:58;;;;;;;5.15;2.90;;;0.20;99.90;;;;;;4987707;28;20073;-75
2022/11/27 06:14:23;;;;;;;6.60;4.18;;;0.10;99.90;;;;;;4990406;28;20407;-75
2022/11/27 06:16:49;;;;;;;4.85;3.58;;;0.20;99.90;;;;;;4992400;28;20117;-75
2022/11/27 06:19:15;;;;;;;5.38;3.35;;;0.20;99.90;;;;;;4994391;28;20038;-73
2022/11/27 06:21:45;;;;;;;6.70;3.53;;;0.20;99.90;;;;;;4996212;28;20398;-74
2022/11/27 06:24:11;;;;;;;6.13;3.75;;;0.20;99.90;;;;;;5001556;28;20052;-75
2022/11/27 06:26:42;;;;;;;4.53;3.33;;;0.20;99.90;;;;;;4995599;28;20503;-75
2022/11/27 06:29:14;;;;;;;6.00;3.50;;;0.20;99.90;;;;;;4987572;28;20338;-75
2022/11/27 06:31:42;;;;;;;6.22;3.78;;;0.10;99.90;;;;;;4996682;28;20054;-74
2022/11/27 06:34:11;;;;;;;5.53;3.63;;;0.10;99.90;;;;;;4985762;28;20426;-74
2022/11/27 06:36:39;;;;;;;6.07;4.10;;;0.10;99.90;;;;;;4991099;28;20026;-75
2022/11/27 06:39:07;;;;;;;7.28;4.78;;;0.10;99.90;;;;;;4986823;28;20033;-75
2022/11/27 06:41:32;;;;;;;8.57;4.30;;;0.00;99.90;;;;;;4993284;28;20037;-74
2022/11/27 06:43:59;;;;;;;6.75;4.13;;;0.00;99.90;;;;;;4991415;28;20034;-76
2022/11/27 06:46:29;;;;;;;8.02;5.22;;;0.00;99.90;;;;;;4994346;28;20490;-75
2022/11/27 06:49:01;;;;;;;9.07;4.63;;;0.00;99.90;;;;;;4997844;28;20491;-74
2022/11/27 06:51:31;;;;;;;9.20;4.63;;;0.00;99.90;;;;;;4995204;28;20575;-75
2022/11/27 06:53:59;;;;;;;7.88;4.53;;;0.00;99.90;;;;;;4997322;28;20042;-75
2022/11/27 06:56:27;;;;;;;6.65;3.80;;;0.00;99.90;;;;;;5001590;28;20513;-74
2022/11/27 06:58:55;;;;;;;6.32;3.53;;;-0.10;99.90;;;;;;4986440;28;20018;-74
2022/11/27 07:01:21;;;;;;;6.18;4.10;;;-0.10;99.90;;;;;;4975725;28;20023;-73
2022/11/27 07:03:47;;;;;;;6.18;4.32;;;-0.10;99.90;;;;;;4983579;28;20054;-74
2022/11/27 07:06:22;;;;;;;6.32;4.15;;;-0.10;99.90;;;;;;5004414;28;20498;-73
2022/11/27 07:08:48;;;;;;;6.70;4.68;;;-0.10;99.90;;;;;;5010167;28;20031;-74
2022/11/27 07:11:17;;;;;;;5.55;3.80;;;-0.10;99.90;;;;;;5002760;28;20133;-76
2022/11/27 07:13:48;;;;;;;6.15;4.35;;;-0.10;99.90;;;;;;4995402;28;20126;-75
2022/11/27 07:16:14;;;;;;;8.18;4.05;;;-0.10;99.90;;;;;;4996046;28;20391;-75
2022/11/27 07:18:43;;;;;;;7.18;4.50;;;-0.10;99.90;;;;;;4994344;28;20019;-75
2022/11/27 07:21:10;;;;;;;6.90;4.55;;;-0.10;99.90;;;;;;4995666;28;20069;-74
2022/11/27 07:23:36;;;;;;;8.23;4.50;;;-0.10;99.90;;;;;;4996293;28;20161;-74
2022/11/27 07:26:07;;;;;;;6.90;4.40;;;-0.10;99.90;;;;;;4996202;28;20053;-74
2022/11/27 07:28:32;;;;;;;7.28;4.70;;;-0.10;99.90;;;;;;4996399;28;20038;-74
2022/11/27 07:31:01;;;;;;;7.72;4.68;;;0.00;99.90;;;;;;4989528;28;20037;-72
2022/11/27 07:33:27;;;;;;;9.18;5.30;;;0.00;99.90;;;;;;4989237;28;20054;-72
2022/11/27 07:36:03;;;;;;;11.50;5.10;;;0.00;99.90;;;;;;4990473;28;20391;-73
2022/11/27 07:38:32;;;;;;;8.30;4.65;;;0.10;99.90;;;;;;4988831;28;20036;-72
2022/11/27 07:41:00;;;;;;;7.57;4.50;;;0.20;99.90;;;;;;4997249;28;20033;-74
2022/11/27 07:43:26;;;;;;;8.38;4.57;;;0.30;99.90;;;;;;4993028;28;20074;-76
2022/11/27 07:45:52;;;;;;;8.65;5.28;;;0.40;99.90;;;;;;4990330;28;20441;-75
2022/11/27 07:48:17;;;;;;;7.85;4.85;;;0.50;99.90;;;;;;4991639;28;20030;-76
2022/11/27 07:50:44;;;;;;;7.05;4.00;;;0.50;99.90;;;;;;4991191;28;20054;-75
2022/11/27 07:53:09;;;;;;;9.13;5.30;;;0.50;99.90;;;;;;4992277;28;20046;-75
2022/11/27 07:55:39;;;;;;;8.95;5.05;;;0.50;99.90;;;;;;4992279;28;20030;-76
2022/11/27 07:58:06;;;;;;;9.73;4.22;;;0.60;99.90;;;;;;4990126;28;20526;-75
2022/11/27 08:00:32;;;;;;;8.38;4.95;;;0.60;99.90;;;;;;4990241;28;20029;-74
2022/11/27 08:02:59;;;;;;;8.82;5.50;;;0.60;99.90;;;;;;4996923;28;20057;-75
2022/11/27 08:05:25;;;;;;;7.40;4.65;;;0.60;99.90;;;;;;4989715;28;20062;-75
2022/11/27 08:07:51;;;;;;;10.02;5.07;;;0.60;99.90;;;;;;4992340;28;20054;-74
2022/11/27 08:10:16;;;;;;;8.30;5.10;;;0.60;99.90;;;;;;4996606;28;20021;-74
2022/11/27 08:12:42;;;;;;;7.75;4.53;;;0.60;99.90;;;;;;4993038;28;20033;-75
2022/11/27 08:15:09;;;;;;;8.45;4.97;;;0.60;99.90;;;;;;4994715;28;20026;-75
2022/11/27 08:17:34;;;;;;;9.32;5.03;;;0.60;99.90;;;;;;4995300;28;20498;-76
2022/11/27 08:20:03;;;;;;;8.88;4.80;;;0.60;99.90;;;;;;4989841;28;20018;-76
2022/11/27 08:22:29;;;;;;;9.10;5.82;;;0.70;99.90;;;;;;5000584;28;20565;-76
2022/11/27 08:24:55;;;;;;;10.45;6.13;;;0.70;99.90;;;;;;5000359;28;20498;-76
2022/11/27 08:27:23;;;;;;;9.50;5.85;;;0.80;99.90;;;;;;4997609;28;20081;-76
2022/11/27 08:29:49;;;;;;;10.73;5.85;;;0.90;99.90;;;;;;4993263;28;20027;-76
2022/11/27 08:32:21;;;;;;;9.65;6.60;;;0.90;99.90;;;;;;4996262;28;20057;-75
2022/11/27 08:34:46;;;;;;;9.73;7.03;;;1.00;99.90;;;;;;5001139;28;20026;-76
2022/11/27 08:37:12;;;;;;;10.35;6.75;;;1.00;99.90;;;;;;4997128;28;20429;-76
2022/11/27 08:39:38;;;;;;;10.70;6.57;;;1.10;99.90;;;;;;4999103;28;20168;-76
2022/11/27 08:42:04;;;;;;;14.90;8.10;;;1.20;99.90;;;;;;5003348;28;20022;-77
2022/11/27 08:44:29;;;;;;;12.48;7.80;;;1.20;99.90;;;;;;5001335;28;20035;-75
2022/11/27 08:46:55;;;;;;;12.75;8.27;;;1.30;99.90;;;;;;5014003;28;20035;-75
2022/11/27 08:49:21;;;;;;;21.85;12.38;;;1.30;99.90;;;;;;4997974;28;20521;-74
2022/11/27 08:51:46;;;;;;;18.98;11.85;;;1.40;99.90;;;;;;4997106;28;20041;-77
2022/11/27 08:54:12;;;;;;;28.13;16.00;;;1.50;99.90;;;;;;4987481;28;20034;-75
2022/11/27 08:56:37;;;;;;;46.38;24.50;;;1.50;99.90;;;;;;4989364;28;20086;-76
2022/11/27 08:59:03;;;;;;;41.53;21.65;;;1.50;99.90;;;;;;4992284;28;20053;-76
2022/11/27 09:01:30;;;;;;;63.65;34.45;;;1.50;99.90;;;;;;4991774;28;20025;-76
2022/11/27 09:03:57;;;;;;;53.90;38.88;;;1.60;99.90;;;;;;4991770;28;20102;-76
2022/11/27 09:06:26;;;;;;;18.27;12.02;;;1.70;99.90;;;;;;4995280;28;20069;-77
2022/11/27 09:08:58;;;;;;;12.10;8.30;;;1.70;99.90;;;;;;4994102;28;20029;-75
2022/11/27 09:11:25;;;;;;;12.00;7.05;;;1.70;99.90;;;;;;4986881;28;20027;-76
2022/11/27 09:13:50;;;;;;;10.25;5.15;;;1.80;99.90;;;;;;4990705;28;20034;-75
2022/11/27 09:16:18;;;;;;;10.57;6.53;;;1.80;99.90;;;;;;4990976;28;20167;-75
2022/11/27 09:18:48;;;;;;;12.43;7.68;;;1.80;99.90;;;;;;4999087;28;20030;-76
2022/11/27 09:21:15;;;;;;;14.68;10.00;;;1.80;99.90;;;;;;4990276;28;20066;-76
2022/11/27 09:23:41;;;;;;;15.60;10.38;;;1.80;99.90;;;;;;4993541;28;20022;-77
2022/11/27 09:26:10;;;;;;;23.63;15.88;;;1.90;99.90;;;;;;5005905;28;20036;-76
2022/11/27 09:28:37;;;;;;;17.15;14.90;;;2.00;99.90;;;;;;4998998;28;20045;-76
2022/11/27 09:31:04;;;;;;;11.50;7.57;;;2.10;99.90;;;;;;5016457;28;20026;-76
2022/11/27 09:33:32;;;;;;;10.13;7.30;;;2.20;99.90;;;;;;5015171;28;20028;-76
2022/11/27 09:36:03;;;;;;;9.00;5.63;;;2.30;99.90;;;;;;5000869;28;20035;-76
2022/11/27 09:38:29;;;;;;;11.10;6.25;;;2.30;99.90;;;;;;5003611;28;20114;-75
2022/11/27 09:41:01;;;;;;;9.73;6.38;;;2.40;99.90;;;;;;4995236;28;20462;-77
2022/11/27 09:43:32;;;;;;;9.75;6.38;;;2.40;99.90;;;;;;5013557;28;20069;-76
2022/11/27 09:46:07;;;;;;;17.55;8.85;;;2.50;99.90;;;;;;5018766;28;20033;-75
2022/11/27 09:48:36;;;;;;;14.27;8.95;;;2.50;99.90;;;;;;5012549;28;20034;-75
2022/11/27 09:51:10;;;;;;;10.52;6.30;;;2.50;99.90;;;;;;5000753;28;20494;-76
2022/11/27 09:54:05;;;;;;;11.13;8.25;;;2.60;99.90;;;;;;5004955;28;20491;-76
2022/11/27 09:56:34;;;;;;;8.77;6.00;;;2.60;99.90;;;;;;4986263;28;20018;-76
2022/11/27 09:59:02;;;;;;;8.52;6.25;;;2.70;99.90;;;;;;4995058;28;20022;-77
2022/11/27 10:01:31;;;;;;;9.48;6.15;;;2.70;99.90;;;;;;5004832;28;20363;-76
2022/11/27 10:03:59;;;;;;;10.25;7.53;;;2.80;99.90;;;;;;5013866;28;20149;-76
2022/11/27 10:07:04;;;;;;;8.63;6.35;;;2.80;99.90;;;;;;4998022;28;20026;-77
2022/11/27 10:10:00;;;;;;;9.88;6.30;;;2.90;99.90;;;;;;4990528;28;20391;-77
2022/11/27 10:13:19;;;;;;;8.90;5.88;;;2.90;99.90;;;;;;4991080;28;20026;-76
2022/11/27 10:16:06;;;;;;;8.50;5.93;;;3.00;99.90;;;;;;4980029;28;20034;-75
2022/11/27 10:18:54;;;;;;;10.48;6.18;;;3.00;99.90;;;;;;5008444;28;20049;-76
2022/11/27 10:21:48;;;;;;;8.88;6.43;;;3.10;99.90;;;;;;4987871;28;20036;-76
2022/11/27 10:24:23;;;;;;;10.23;6.60;;;3.10;99.90;;;;;;4994557;28;20026;-75
2022/11/27 10:26:52;;;;;;;12.98;6.40;;;3.10;99.90;;;;;;5010891;28;20042;-76
2022/11/27 10:29:35;;;;;;;11.23;6.20;;;3.20;99.90;;;;;;5012306;28;20382;-75
2022/11/27 10:32:13;;;;;;;9.15;6.20;;;3.10;99.90;;;;;;4993440;28;20113;-75
2022/11/27 10:34:50;;;;;;;10.23;6.93;;;3.20;99.90;;;;;;4989985;28;20027;-75
2022/11/27 10:37:15;;;;;;;12.25;7.63;;;3.20;99.90;;;;;;4998843;28;20021;-75
2022/11/27 10:40:06;;;;;;;11.63;6.53;;;3.30;99.90;;;;;;4994234;28;20073;-76
2022/11/27 10:42:39;;;;;;;9.73;6.55;;;3.30;99.90;;;;;;4987891;28;20050;-76
2022/11/27 10:45:28;;;;;;;12.40;6.15;;;3.30;99.90;;;;;;4997975;28;20054;-74
2022/11/27 10:47:54;;;;;;;10.35;6.57;;;3.40;99.90;;;;;;4997678;28;20191;-76
2022/11/27 10:50:20;;;;;;;12.50;6.50;;;3.40;99.90;;;;;;4995496;28;20463;-75
2022/11/27 10:52:50;;;;;;;10.88;6.70;;;3.40;99.90;;;;;;4992283;28;20034;-74
2022/11/27 10:55:26;;;;;;;10.60;6.82;;;3.50;99.90;;;;;;4993927;28;20026;-75
2022/11/27 10:58:00;;;;;;;8.73;6.47;;;3.60;99.90;;;;;;4987383;28;20018;-76
2022/11/27 11:00:26;;;;;;;10.52;6.55;;;3.60;99.90;;;;;;4994592;28;20040;-73
2022/11/27 11:03:00;;;;;;;11.75;6.35;;;3.70;99.90;;;;;;4993543;28;20077;-73
2022/11/27 11:05:27;;;;;;;10.55;6.32;;;3.70;99.90;;;;;;4992190;28;20045;-74
2022/11/27 11:07:59;;;;;;;9.23;5.97;;;3.70;99.90;;;;;;4989966;28;20040;-74
2022/11/27 11:11:04;;;;;;;10.10;6.35;;;3.70;99.90;;;;;;4995105;28;20034;-75
2022/11/27 11:13:44;;;;;;;10.50;6.63;;;3.70;99.90;;;;;;4996712;28;20504;-75
2022/11/27 11:16:21;;;;;;;13.02;6.57;;;3.70;99.90;;;;;;4998341;28;20050;-75
2022/11/27 11:18:54;;;;;;;9.75;6.45;;;3.70;99.90;;;;;;4995400;28;20022;-74
2022/11/27 11:21:31;;;;;;;11.85;6.28;;;3.70;99.90;;;;;;4993884;28;20028;-74
2022/11/27 11:24:25;;;;;;;10.07;6.65;;;3.70;99.90;;;;;;4980964;28;26215;-76
2022/11/27 11:27:05;;;;;;;53.47;27.97;;;3.70;99.90;;;;;;4989044;28;20038;-76
2022/11/27 11:29:53;;;;;;;92.28;45.08;;;3.80;99.90;;;;;;4987666;28;20275;-75
2022/11/27 11:32:19;;;;;;;22.63;12.75;;;3.80;99.90;;;;;;4990964;28;20034;-77
2022/11/27 11:34:50;;;;;;;18.00;8.75;;;3.80;99.90;;;;;;4991226;28;20545;-76
2022/11/27 11:37:34;;;;;;;15.38;8.82;;;3.90;99.90;;;;;;4995206;28;20105;-76
2022/11/27 11:40:07;;;;;;;24.98;12.82;;;4.00;99.90;;;;;;4986692;28;20049;-76
2022/11/27 11:42:35;;;;;;;28.42;14.52;;;4.10;99.90;;;;;;4990379;28;20032;-77
2022/11/27 11:45:10;;;;;;;11.00;7.25;;;4.10;99.90;;;;;;4985859;28;20039;-75
2022/11/27 11:47:44;;;;;;;14.07;8.02;;;4.30;99.90;;;;;;4988504;28;20039;-77
2022/11/27 11:50:15;;;;;;;;;;;4.30;99.90;;;;;;4996312;28;20030;-76
2022/11/27 11:52:53;;;;;;;8.77;6.47;;;4.40;99.90;;;;;;4986073;28;20532;-75
2022/11/27 11:55:29;;;;;;;10.48;6.30;;;4.50;99.90;;;;;;4984586;28;20077;-75
2022/11/27 11:58:01;;;;;;;9.48;5.80;;;4.60;99.90;;;;;;4995611;28;20498;-77
2022/11/27 12:00:40;;;;;;;14.68;6.65;;;4.70;99.90;;;;;;4996039;28;20050;-77
2022/11/27 12:03:05;;;;;;;11.48;5.93;;;4.70;99.90;;;;;;4985595;28;20034;-77
2022/11/27 12:05:53;;;;;;;12.18;6.55;;;4.80;99.90;;;;;;4991826;28;20053;-78
2022/11/27 12:08:36;;;;;;;10.18;6.20;;;4.80;99.90;;;;;;5031500;23;20038;-80
2022/11/27 12:11:15;;;;;;;13.50;7.32;;;4.90;99.90;;;;;;5015602;28;20120;-77
2022/11/27 12:14:04;;;;;;;10.23;6.45;;;4.90;99.90;;;;;;5019097;28;20034;-77
2022/11/27 12:16:48;;;;;;;11.40;7.25;;;5.00;99.90;;;;;;5017542;28;20030;-77
2022/11/27 12:19:40;;;;;;;9.65;5.53;;;5.10;99.90;;;;;;5057911;28;20500;-78
2022/11/27 12:22:43;;;;;;;13.77;7.30;;;5.20;99.90;;;;;;5016753;28;20061;-77
2022/11/27 12:25:32;;;;;;;10.35;6.32;;;5.20;99.90;;;;;;5014503;28;20033;-76
2022/11/27 12:28:07;;;;;;;8.90;5.60;;;5.30;99.90;;;;;;5015646;28;20398;-76
2022/11/27 12:30:42;;;;;;;14.18;6.63;;;5.40;99.90;;;;;;5017130;28;20374;-78
2022/11/27 12:33:32;;;;;;;15.10;7.95;;;5.40;99.90;;;;;;5017639;28;20541;-76
2022/11/27 12:36:35;;;;;;;11.98;6.75;;;5.40;99.90;;;;;;5015798;28;20057;-76
2022/11/27 12:39:26;;;;;;;11.32;6.65;;;5.50;99.90;;;;;;5047085;28;20449;-76
2022/11/27 12:41:57;;;;;;;12.60;7.07;;;5.60;99.90;;;;;;5015950;28;20097;-77
2022/11/27 12:45:03;;;;;;;13.98;6.07;;;5.60;99.90;;;;;;5015906;28;20081;-77
2022/11/27 12:47:45;;;;;;;11.82;7.00;;;5.70;99.90;;;;;;5017237;28;20049;-78
2022/11/27 12:50:24;;;;;;;11.50;7.18;;;5.70;99.90;;;;;;5019309;28;20107;-78
2022/11/27 12:53:10;;;;;;;11.32;7.30;;;5.70;99.90;;;;;;5018582;28;20026;-78
2022/11/27 12:55:39;;;;;;;13.05;7.40;;;5.80;99.90;;;;;;5016288;28;20096;-78
2022/11/27 12:58:30;;;;;;;13.05;6.75;;;5.80;99.90;;;;;;5017253;28;20044;-78
2022/11/27 13:01:10;;;;;;;11.77;6.40;;;5.90;99.90;;;;;;5010510;28;20033;-78
2022/11/27 13:04:13;;;;;;;12.80;6.68;;;5.90;99.90;;;;;;5015982;28;20548;-78
2022/11/27 13:07:04;;;;;;;10.70;6.22;;;5.90;99.90;;;;;;5015553;28;20064;-77
2022/11/27 13:09:44;;;;;;;10.75;5.88;;;6.00;99.90;;;;;;5010549;28;20033;-78
2022/11/27 13:12:16;;;;;;;12.13;5.47;;;6.10;99.90;;;;;;5030853;28;20032;-79